Time;durP1;ratioP1;P1;durP2;ratioP2;P2;SDS_P1;SDS_P2;PMS_P1;PMS_P2;Temp;Humidity;BMP_temperature;BMP_pressure;BME280_temperature;BME280_humidity;BME280_pressure;Samples;Min_cycle;Max_cycle;Signal;HPM_P1;HPM_P2
2024/03/21 00:02:08;;;;;;;7.10;3.10;;;;;;;5.86;73.36;99289.42;105240;1265;61181;-27
2024/03/21 00:04:36;;;;;;;8.80;3.90;;;;;;;6.37;71.32;99284.92;105245;1260;73145;-27
2024/03/21 00:07:05;;;;;;;4.30;3.40;;;;;;;6.25;71.21;99281.14;105223;1265;74484;-28
2024/03/21 00:09:33;;;;;;;9.20;4.10;;;;;;;5.88;73.02;99282.39;105304;1264;72680;-28
2024/03/21 00:19:42;;;;;;;6.70;3.80;;;;;;;5.90;73.66;99280.92;102721;1293;600580;-26
2024/03/21 00:22:10;;;;;;;7.30;3.10;;;;;;;5.94;73.14;99283.30;105019;1267;61146;-27
2024/03/21 00:24:38;;;;;;;7.20;4.00;;;;;;;5.84;73.50;99284.72;104819;1266;61158;-26
2024/03/21 00:34:46;;;;;;;4.00;2.90;;;;;;;6.32;72.32;99277.61;102829;1289;599421;-25
2024/03/21 00:37:13;;;;;;;3.50;3.00;;;;;;;6.31;71.73;99276.63;104869;1264;61158;-25
2024/03/21 00:39:45;;;;;;;2.80;2.20;;;;;;;6.17;72.52;99279.19;104861;1269;61204;-25
2024/03/21 00:42:13;;;;;;;6.00;3.80;;;;;;;5.95;73.30;99274.59;105154;1270;71805;-25
2024/03/21 00:44:41;;;;;;;9.40;3.00;;;;;;;5.50;75.30;99274.74;105096;1264;74736;-25
2024/03/21 00:47:08;;;;;;;10.30;4.00;;;;;;;5.31;77.14;99275.65;104879;1264;71549;-26
2024/03/21 00:49:36;;;;;;;6.40;3.10;;;;;;;5.76;75.30;99278.77;104987;1264;238978;-25
2024/03/21 00:52:05;;;;;;;11.10;4.80;;;;;;;6.00;73.99;99278.96;105268;1263;61157;-25
2024/03/21 00:54:33;;;;;;;3.60;2.50;;;;;;;5.42;76.20;99268.84;105207;1266;71824;-25
2024/03/21 00:57:00;;;;;;;9.20;4.70;;;;;;;5.61;75.72;99269.64;105137;1267;74365;-27
2024/03/21 00:59:28;;;;;;;9.90;4.30;;;;;;;5.15;78.06;99269.60;105131;1266;72703;-28
2024/03/21 01:01:56;;;;;;;8.70;4.00;;;;;;;5.70;76.39;99273.46;105104;1269;61170;-27
2024/03/21 01:04:23;;;;;;;8.40;4.60;;;;;;;5.95;74.98;99269.58;105070;1263;61204;-27
2024/03/21 01:06:51;;;;;;;7.50;4.30;;;;;;;5.95;74.97;99265.80;104874;1263;73876;-25
2024/03/21 01:14:46;;;;;;;8.50;4.40;;;;;;;5.58;77.41;99261.16;102700;1293;601226;-25
2024/03/21 01:17:13;;;;;;;9.50;5.90;;;;;;;6.18;75.18;99263.79;105002;1269;61104;-26
2024/03/21 01:19:41;;;;;;;14.80;7.00;;;;;;;6.13;75.46;99259.61;104880;1266;61107;-26
2024/03/21 01:22:08;;;;;;;16.00;7.10;;;;;;;6.06;75.78;99266.54;104796;1264;73097;-26
2024/03/21 01:24:37;;;;;;;15.80;7.20;;;;;;;5.95;76.27;99264.98;104796;1271;74326;-26
2024/03/21 01:27:05;;;;;;;13.00;5.70;;;;;;;5.69;77.34;99263.20;104867;1264;71476;-26
2024/03/21 01:37:14;;;;;;;12.60;5.40;;;;;;;5.99;75.95;99258.83;102823;1289;599210;-25
2024/03/21 01:39:41;;;;;;;12.50;5.90;;;;;;;5.69;77.78;99260.56;104882;1267;61050;-25
2024/03/21 01:42:11;;;;;;;13.90;6.60;;;;;;;5.79;77.75;99259.98;105564;1257;61155;-25
2024/03/21 01:44:38;;;;;;;13.80;7.10;;;;;;;6.05;76.70;99259.52;105482;1257;71819;-25
2024/03/21 01:47:07;;;;;;;11.10;6.60;;;;;;;5.48;79.01;99257.83;105550;1258;74325;-25
2024/03/21 01:57:09;;;;;;;17.40;7.00;;;;;;;5.88;78.46;99260.34;102653;1292;600263;-24
2024/03/21 01:59:37;;;;;;;15.60;8.00;;;;;;;5.83;78.26;99259.13;104803;1264;61239;-24
2024/03/21 02:02:05;;;;;;;12.60;7.00;;;;;;;5.64;79.19;99258.28;104995;1264;61197;-24
2024/03/21 02:04:32;;;;;;;9.90;6.00;;;;;;;5.62;79.73;99261.52;105059;1266;72123;-24
2024/03/21 02:07:00;;;;;;;15.20;7.70;;;;;;;5.94;78.59;99263.79;104989;1269;74348;-24
2024/03/21 02:09:28;;;;;;;18.30;7.40;;;;;;;6.17;77.39;99259.90;105020;1266;72706;-24
2024/03/21 02:11:55;;;;;;;17.70;8.00;;;;;;;5.88;78.21;99259.16;105073;1267;247332;-24
2024/03/21 02:14:23;;;;;;;18.70;8.10;;;;;;;5.74;79.26;99258.92;105018;1268;61161;-24
2024/03/21 02:16:51;;;;;;;11.90;6.90;;;;;;;5.59;79.91;99261.35;105170;1263;72110;-24
2024/03/21 02:19:18;;;;;;;13.30;7.40;;;;;;;5.65;80.08;99260.45;105201;1265;72184;-24
2024/03/21 02:24:34;;;;;;;14.30;7.40;;;;;;;6.18;77.48;99260.54;105119;1262;61018;-25
2024/03/21 02:27:01;;;;;;;13.60;7.90;;;;;;;5.84;78.81;99263.86;105188;1261;61126;-26
2024/03/21 02:29:29;;;;;;;14.70;6.30;;;;;;;5.66;79.79;99262.79;105208;1262;72895;-26
2024/03/21 02:31:57;;;;;;;14.80;8.40;;;;;;;6.08;78.25;99265.04;105161;1262;74359;-23
2024/03/21 02:34:24;;;;;;;18.80;8.50;;;;;;;6.20;78.02;99267.63;105063;1268;70976;-23
2024/03/21 02:36:52;;;;;;;56.80;24.10;;;;;;;6.60;75.90;99264.36;105110;1266;61670;-23
2024/03/21 02:39:20;;;;;;;33.60;17.60;;;;;;;6.53;76.18;99261.38;104897;1262;61157;-23
2024/03/21 02:41:48;;;;;;;14.20;7.60;;;;;;;6.17;77.21;99260.70;105065;1267;72560;-26
2024/03/21 02:44:16;;;;;;;11.60;6.90;;;;;;;6.46;76.62;99254.67;105156;1266;74340;-25
2024/03/21 02:46:43;;;;;;;13.00;7.80;;;;;;;6.53;75.68;99253.60;105234;1262;71445;-25
2024/03/21 02:49:11;;;;;;;17.50;7.20;;;;;;;6.02;78.40;99257.11;105215;1266;61161;-23
2024/03/21 02:59:12;;;;;;;16.40;8.20;;;;;;;6.54;76.76;99260.45;102676;1291;599510;-23
2024/03/21 03:01:41;;;;;;;24.40;9.50;;;;;;;6.30;77.06;99260.50;104850;1267;61014;-24
2024/03/21 03:04:10;;;;;;;18.80;9.60;;;;;;;6.38;76.92;99264.12;104814;1273;61187;-25
2024/03/21 03:06:38;;;;;;;21.90;9.30;;;;;;;6.04;78.52;99265.27;104854;1266;72136;-25
2024/03/21 03:09:06;;;;;;;14.90;7.80;;;;;;;6.55;76.58;99268.66;104872;1267;73387;-25
2024/03/21 03:11:36;;;;;;;19.60;8.80;;;;;;;6.85;74.83;99270.63;104800;1269;72738;-25
2024/03/21 03:14:04;;;;;;;17.50;8.90;;;;;;;6.76;75.17;99269.75;104782;1268;197098;-25
2024/03/21 03:24:13;;;;;;;17.50;9.20;;;;;;;6.81;75.01;99283.98;102636;1292;599347;-23
2024/03/21 03:26:40;;;;;;;17.50;9.00;;;;;;;7.45;72.38;99282.89;104850;1267;61171;-24
2024/03/21 03:29:08;;;;;;;22.80;10.00;;;;;;;7.21;72.70;99281.30;104842;1267;61132;-23
2024/03/21 03:31:36;;;;;;;18.30;9.70;;;;;;;7.18;72.85;99287.23;104723;1273;72990;-23
2024/03/21 03:36:50;;;;;;;17.20;9.10;;;;;;;6.68;74.83;99290.45;104642;1271;231123;-24
2024/03/21 03:39:17;;;;;;;23.80;11.60;;;;;;;6.64;75.95;99292.24;105143;1264;61068;-24
2024/03/21 03:41:45;;;;;;;27.70;11.00;;;;;;;6.70;75.21;99291.35;105081;1264;61074;-24
2024/03/21 03:44:12;;;;;;;30.70;15.40;;;;;;;6.77;74.89;99292.65;105214;1261;73048;-25
2024/03/21 03:46:41;;;;;;;24.60;11.60;;;;;;;6.83;74.89;99296.78;105266;1263;74474;-24
2024/03/21 03:49:08;;;;;;;20.30;9.60;;;;;;;6.52;75.64;99299.71;105216;1265;72682;-24
2024/03/21 03:51:36;;;;;;;29.50;11.00;;;;;;;6.52;76.07;99302.84;105184;1266;61774;-24
2024/03/21 03:54:04;;;;;;;32.10;13.10;;;;;;;6.87;74.88;99297.20;104923;1259;61161;-24
2024/03/21 03:56:31;;;;;;;26.60;11.80;;;;;;;6.81;74.78;99300.02;105118;1260;73826;-24
2024/03/21 03:58:59;;;;;;;17.60;9.00;;;;;;;6.24;77.18;99304.11;105199;1264;74399;-24
2024/03/21 04:01:27;;;;;;;28.60;12.40;;;;;;;6.24;77.63;99302.58;105205;1266;71428;-24
2024/03/21 04:03:54;;;;;;;31.80;12.80;;;;;;;6.13;77.74;99302.33;105154;1267;61166;-24
2024/03/21 04:06:22;;;;;;;21.60;10.10;;;;;;;6.62;76.00;99302.73;105184;1260;61115;-24
2024/03/21 04:08:50;;;;;;;22.80;10.00;;;;;;;6.40;76.37;99303.73;105230;1260;73841;-24
2024/03/21 04:19:00;;;;;;;23.20;8.60;;;;;;;6.47;77.27;99311.36;102743;1290;599964;-23
2024/03/21 04:21:27;;;;;;;22.60;9.90;;;;;;;6.91;73.93;99315.30;104857;1266;61075;-23
2024/03/21 04:23:55;;;;;;;22.90;8.30;;;;;;;6.72;74.85;99320.08;106129;1252;61084;-24
2024/03/21 04:26:22;;;;;;;18.00;10.40;;;;;;;6.90;73.88;99323.83;106125;1252;72979;-23
2024/03/21 04:28:50;;;;;;;29.90;11.40;;;;;;;6.57;74.63;99316.83;106116;1252;74264;-23
2024/03/21 04:38:51;;;;;;;29.20;11.50;;;;;;;7.43;71.51;99320.85;102628;1295;599305;-23
2024/03/21 04:41:19;;;;;;;23.90;10.90;;;;;;;6.80;73.42;99327.02;104839;1266;60992;-22
2024/03/21 04:43:47;;;;;;;26.40;10.60;;;;;;;6.67;73.87;99326.91;104800;1267;61255;-24
2024/03/21 04:46:14;;;;;;;23.60;9.80;;;;;;;6.71;74.51;99328.73;104860;1270;73016;-25
2024/03/21 04:48:42;;;;;;;25.00;10.00;;;;;;;7.33;71.78;99326.82;104793;1271;73219;-25
2024/03/21 04:58:52;;;;;;;22.60;9.20;;;;;;;6.92;72.96;99329.35;102742;1290;599555;-22
2024/03/21 05:01:19;;;;;;;15.50;7.80;;;;;;;6.74;74.15;99329.08;104829;1269;61731;-25
2024/03/21 05:03:47;;;;;;;20.20;8.30;;;;;;;7.34;71.80;99328.14;104803;1267;61126;-25
2024/03/21 05:06:15;;;;;;;16.60;8.90;;;;;;;7.37;71.34;99327.98;104824;1267;73042;-25
2024/03/21 05:16:23;;;;;;;16.40;7.40;;;;;;;6.34;74.90;99333.00;102642;1293;599303;-24
2024/03/21 05:18:53;;;;;;;17.60;9.20;;;;;;;6.68;73.51;99332.04;104836;1267;61110;-24
2024/03/21 05:21:21;;;;;;;21.40;9.80;;;;;;;6.82;72.89;99337.05;104792;1270;61130;-23
2024/03/21 05:23:48;;;;;;;17.90;8.60;;;;;;;6.62;73.92;99340.67;104807;1270;72982;-23
2024/03/21 05:26:16;;;;;;;17.20;9.10;;;;;;;6.36;75.38;99338.95;104877;1270;72945;-23
2024/03/21 05:28:46;;;;;;;13.40;5.90;;;;;;;6.43;76.23;99344.52;104801;1267;71705;-24
2024/03/21 05:31:24;;;;;;;33.70;13.90;;;;;;;6.73;74.12;99346.02;104949;1268;244311;-23
2024/03/21 05:33:51;;;;;;;57.80;26.60;;;;;;;6.98;73.42;99349.70;104867;1271;61099;-24
2024/03/21 05:36:19;;;;;;;49.90;24.10;;;;;;;6.55;73.82;99351.63;105085;1264;71816;-23
2024/03/21 05:38:47;;;;;;;39.00;20.60;;;;;;;6.78;72.49;99351.61;104858;1263;74368;-23
2024/03/21 05:41:15;;;;;;;28.10;13.10;;;;;;;7.18;71.02;99352.63;105132;1262;72710;-24
2024/03/21 05:43:42;;;;;;;27.70;14.40;;;;;;;7.41;69.55;99350.16;105106;1264;61069;-23
2024/03/21 05:46:10;;;;;;;21.00;11.40;;;;;;;6.83;71.50;99352.15;104952;1263;61090;-23
2024/03/21 05:48:39;;;;;;;31.20;13.30;;;;;;;7.69;69.37;99351.80;105597;1253;72947;-24
2024/03/21 05:51:06;;;;;;;68.70;37.20;;;;;;;7.59;68.05;99349.24;105906;1253;74262;-23
2024/03/21 05:53:34;;;;;;;46.80;23.20;;;;;;;7.60;68.77;99351.54;105671;1254;72651;-24
2024/03/21 05:56:05;;;;;;;62.50;31.50;;;;;;;7.60;68.51;99355.31;105872;1253;61102;-24
2024/03/21 05:58:33;;;;;;;58.10;31.50;;;;;;;7.52;68.93;99358.14;105727;1253;61043;-23
2024/03/21 06:03:44;;;;;;;34.90;18.80;;;;;;;6.56;73.98;99362.59;105651;1253;75710;-23
2024/03/21 06:06:12;;;;;;;41.00;16.80;;;;;;;6.88;72.85;99360.67;105669;1253;72806;-23
2024/03/21 06:08:41;;;;;;;55.30;22.70;;;;;;;6.77;73.05;99363.05;105717;1257;61365;-23
2024/03/21 06:11:09;;;;;;;55.70;24.30;;;;;;;6.93;72.84;99363.51;105658;1260;61191;-23
2024/03/21 06:13:36;;;;;;;94.00;50.50;;;;;;;7.27;71.62;99364.18;105672;1258;76179;-23
2024/03/21 06:16:04;;;;;;;69.60;33.70;;;;;;;6.53;73.90;99365.37;105691;1253;73021;-23
2024/03/21 06:18:31;;;;;;;34.10;17.20;;;;;;;6.39;75.02;99366.49;105688;1254;72657;-23
2024/03/21 06:28:33;;;;;;;30.30;14.50;;;;;;;7.12;71.13;99370.33;102697;1290;600347;-23
2024/03/21 06:31:01;;;;;;;55.60;30.20;;;;;;;6.60;72.80;99372.74;104785;1267;61081;-25
2024/03/21 06:33:28;;;;;;;23.20;8.90;;;;;;;6.94;71.97;99375.00;104909;1266;61202;-25
2024/03/21 06:35:57;;;;;;;20.20;8.80;;;;;;;6.63;72.45;99374.08;104858;1270;71568;-25
2024/03/21 06:38:25;;;;;;;19.50;7.40;;;;;;;7.10;70.28;99375.77;104715;1274;77498;-25
2024/03/21 06:40:52;;;;;;;19.40;9.10;;;;;;;7.32;69.86;99375.60;104851;1269;72190;-25
2024/03/21 06:43:20;;;;;;;34.00;16.50;;;;;;;7.10;70.22;99376.27;104802;1263;199250;-24
2024/03/21 06:45:54;;;;;;;33.80;16.80;;;;;;;6.81;70.83;99374.73;105154;1263;61046;-25
2024/03/21 06:48:22;;;;;;;13.90;8.20;;;;;;;6.34;72.60;99376.80;105272;1264;72015;-25
2024/03/21 06:50:50;;;;;;;18.10;7.00;;;;;;;6.45;72.43;99377.05;105653;1261;78453;-25
2024/03/21 06:53:18;;;;;;;16.20;9.00;;;;;;;7.20;69.79;99381.38;105634;1257;75441;-25
2024/03/21 06:55:52;;;;;;;12.50;7.00;;;;;;;7.15;68.71;99376.05;105521;1251;61266;-25
2024/03/21 06:58:20;;;;;;;13.80;7.60;;;;;;;6.67;70.82;99379.06;105464;1253;61187;-25
2024/03/21 07:00:48;;;;;;;51.60;23.10;;;;;;;7.51;68.99;99383.27;105831;1257;77795;-26
2024/03/21 07:03:16;;;;;;;47.80;19.00;;;;;;;7.38;69.39;99388.20;105908;1251;75835;-26
2024/03/21 07:05:43;;;;;;;39.40;19.10;;;;;;;7.32;69.66;99392.34;105893;1256;75511;-25
2024/03/21 07:08:11;;;;;;;21.60;9.00;;;;;;;6.43;73.05;99391.48;105891;1253;61145;-25
2024/03/21 07:10:39;;;;;;;19.10;8.60;;;;;;;7.16;70.49;99396.12;105940;1256;62821;-26
2024/03/21 07:13:06;;;;;;;8.80;5.50;;;;;;;7.09;69.60;99393.23;105909;1251;76726;-26
2024/03/21 07:15:34;;;;;;;15.50;7.40;;;;;;;6.86;70.35;99397.23;105674;1251;76361;-26
2024/03/21 07:25:38;;;;;;;11.70;6.20;;;;;;;7.12;70.11;99399.10;102755;1290;599566;-25
2024/03/21 07:28:05;;;;;;;27.70;12.30;;;;;;;7.13;68.66;99394.02;105461;1260;61930;-26
2024/03/21 07:30:33;;;;;;;19.00;9.00;;;;;;;7.45;67.26;99398.95;105520;1257;61445;-26
2024/03/21 07:33:01;;;;;;;33.00;16.10;;;;;;;7.69;66.88;99399.02;105289;1259;74503;-26
2024/03/21 07:35:28;;;;;;;52.70;20.30;;;;;;;6.99;69.72;99405.42;105359;1262;77527;-27
2024/03/21 07:37:56;;;;;;;27.00;10.40;;;;;;;6.95;70.69;99409.98;105431;1262;74207;-26
2024/03/21 07:40:24;;;;;;;19.40;9.10;;;;;;;6.96;70.60;99408.35;105369;1255;332777;-26
2024/03/21 07:42:53;;;;;;;23.20;10.90;;;;;;;7.84;67.63;99406.89;105539;1259;64068;-26
2024/03/21 07:45:21;;;;;;;47.10;18.10;;;;;;;7.31;68.12;99409.17;105583;1261;75943;-26
2024/03/21 07:47:49;;;;;;;72.10;23.80;;;;;;;7.93;66.40;99411.48;105550;1260;74828;-26
2024/03/21 07:50:16;;;;;;;34.50;18.20;;;;;;;7.35;67.97;99414.08;105361;1257;73763;-26
2024/03/21 07:52:44;;;;;;;17.20;8.50;;;;;;;6.92;69.19;99411.39;105596;1256;62510;-26
2024/03/21 07:55:12;;;;;;;22.90;10.80;;;;;;;7.47;67.95;99411.44;105530;1255;61316;-26
2024/03/21 07:57:39;;;;;;;22.00;9.20;;;;;;;7.73;66.88;99412.29;105525;1256;75194;-26
2024/03/21 08:07:45;;;;;;;14.50;7.30;;;;;;;7.93;65.07;99415.46;102718;1290;601027;-25
2024/03/21 08:10:14;;;;;;;14.80;7.60;;;;;;;7.67;65.78;99411.27;104860;1267;62076;-25
2024/03/21 08:12:41;;;;;;;29.20;13.20;;;;;;;7.66;66.30;99414.92;104894;1271;62192;-25
2024/03/21 08:15:09;;;;;;;26.30;12.10;;;;;;;7.82;66.27;99417.02;104811;1271;74219;-26
2024/03/21 08:17:37;;;;;;;21.20;10.30;;;;;;;7.87;65.22;99418.95;104889;1267;77120;-26
2024/03/21 08:20:06;;;;;;;13.10;6.30;;;;;;;7.60;66.42;99420.13;104887;1267;75478;-26
2024/03/21 08:22:34;;;;;;;18.50;9.30;;;;;;;8.11;64.88;99421.23;105051;1269;213290;-26
2024/03/21 08:25:03;;;;;;;14.40;8.80;;;;;;;8.19;64.12;99416.06;105225;1268;62882;-26
2024/03/21 08:27:31;;;;;;;33.80;12.70;;;;;;;7.91;64.87;99413.70;105085;1269;75852;-26
2024/03/21 08:30:02;;;;;;;19.10;8.50;;;;;;;7.37;66.67;99416.08;105165;1269;77024;-26
2024/03/21 08:32:30;;;;;;;56.00;23.40;;;;;;;7.31;67.14;99417.77;105211;1264;75161;-26
2024/03/21 08:42:37;;;;;;;15.40;7.60;;;;;;;8.55;63.58;99417.86;102698;1293;599269;-25
2024/03/21 08:45:09;;;;;;;9.30;5.80;;;;;;;9.11;62.73;99422.90;104794;1267;62287;-27
2024/03/21 08:47:37;;;;;;;11.50;5.50;;;;;;;8.45;64.27;99417.85;104824;1265;61795;-27
2024/03/21 08:50:06;;;;;;;23.00;7.30;;;;;;;8.52;64.21;99424.11;104874;1268;74443;-27
2024/03/21 08:52:35;;;;;;;12.50;7.40;;;;;;;8.59;62.88;99424.20;104452;1273;77245;-28
2024/03/21 08:55:02;;;;;;;19.60;9.80;;;;;;;8.52;62.79;99423.95;104873;1267;72986;-27
2024/03/21 08:57:31;;;;;;;17.80;8.10;;;;;;;8.53;63.38;99426.81;104816;1267;61108;-28
2024/03/21 08:59:59;;;;;;;15.80;7.70;;;;;;;8.39;63.59;99424.82;105081;1265;62794;-27
2024/03/21 09:02:27;;;;;;;20.70;7.70;;;;;;;8.49;63.17;99428.47;104980;1267;75310;-27
2024/03/21 09:04:55;;;;;;;13.20;7.00;;;;;;;8.43;63.74;99424.02;105172;1261;78354;-27
2024/03/21 09:07:22;;;;;;;12.90;5.80;;;;;;;8.60;62.50;99428.58;105009;1264;75127;-28
2024/03/21 09:09:50;;;;;;;14.60;6.00;;;;;;;9.67;59.52;99432.22;105162;1267;62385;-27
2024/03/21 09:12:18;;;;;;;16.40;7.10;;;;;;;8.98;61.68;99432.80;105212;1272;64007;-27
2024/03/21 09:14:46;;;;;;;14.80;7.40;;;;;;;8.90;61.50;99432.46;105411;1257;76031;-27
2024/03/21 09:17:13;;;;;;;11.00;5.70;;;;;;;8.83;62.60;99430.70;105449;1257;76754;-27
2024/03/21 09:19:41;;;;;;;14.20;8.00;;;;;;;8.80;62.32;99430.23;105522;1260;73708;-28
2024/03/21 09:22:09;;;;;;;19.50;8.60;;;;;;;8.50;62.93;99427.33;105510;1257;62087;-27
2024/03/21 09:24:38;;;;;;;45.50;25.90;;;;;;;8.95;61.76;99427.67;105522;1263;61433;-25
2024/03/21 09:27:05;;;;;;;24.60;10.20;;;;;;;8.61;62.34;99429.88;105401;1263;75338;-26
2024/03/21 09:29:38;;;;;;;23.20;10.70;;;;;;;9.31;60.95;99430.84;105192;1261;75207;-27
2024/03/21 09:32:06;;;;;;;19.50;5.80;;;;;;;9.37;59.90;99430.63;105399;1257;73407;-27
2024/03/21 09:34:34;;;;;;;20.00;11.50;;;;;;;9.00;60.96;99427.85;105339;1263;61821;-27
2024/03/21 09:37:02;;;;;;;12.60;6.20;;;;;;;8.93;61.50;99429.83;105228;1261;61857;-27
2024/03/21 09:39:30;;;;;;;18.40;8.80;;;;;;;9.27;60.82;99428.58;105593;1258;77748;-27
2024/03/21 09:41:58;;;;;;;14.60;8.50;;;;;;;8.71;61.01;99425.58;105521;1262;76797;-26
2024/03/21 09:44:25;;;;;;;16.20;10.20;;;;;;;8.85;60.90;99424.85;105440;1264;75679;-26
2024/03/21 09:46:53;;;;;;;54.20;22.40;;;;;;;8.78;61.62;99422.58;105225;1263;61543;-26
2024/03/21 09:49:21;;;;;;;74.90;28.90;;;;;;;8.34;62.32;99418.20;105415;1262;61898;-26
2024/03/21 09:51:48;;;;;;;18.70;8.80;;;;;;;9.11;61.13;99419.45;105513;1262;75801;-26
2024/03/21 09:54:16;;;;;;;13.50;6.50;;;;;;;9.46;59.17;99418.10;105256;1263;76788;-26
2024/03/21 09:56:46;;;;;;;21.50;10.80;;;;;;;8.46;62.45;99409.77;105519;1261;75055;-26
2024/03/21 09:59:15;;;;;;;13.40;7.30;;;;;;;9.07;60.98;99409.16;105301;1265;62283;-26
2024/03/21 10:01:46;;;;;;;13.90;7.60;;;;;;;9.68;59.89;99413.74;105630;1260;62853;-26
2024/03/21 10:04:14;;;;;;;15.00;7.20;;;;;;;9.79;58.05;99412.11;105604;1258;76543;-25
2024/03/21 10:06:45;;;;;;;9.90;5.90;;;;;;;9.95;57.76;99414.57;105281;1261;76868;-26
2024/03/21 10:09:14;;;;;;;14.40;7.40;;;;;;;10.74;55.51;99414.15;105163;1267;75488;-26
2024/03/21 10:11:42;;;;;;;17.00;7.80;;;;;;;10.17;57.39;99414.17;105270;1263;61391;-26
2024/03/21 10:14:12;;;;;;;19.00;9.30;;;;;;;10.21;56.82;99415.80;105502;1257;61126;-26
2024/03/21 10:16:40;;;;;;;12.50;7.20;;;;;;;10.42;55.74;99412.73;105295;1257;75299;-26
2024/03/21 10:19:08;;;;;;;15.20;8.30;;;;;;;10.39;55.53;99412.42;105503;1261;75587;-26
2024/03/21 10:21:36;;;;;;;20.10;9.50;;;;;;;10.96;55.05;99410.52;105103;1264;74250;-26
2024/03/21 10:24:05;;;;;;;17.20;7.50;;;;;;;10.50;55.94;99410.06;105153;1262;61542;-26
2024/03/21 10:26:33;;;;;;;15.50;9.10;;;;;;;9.78;57.53;99406.95;105205;1257;61133;-26
2024/03/21 10:29:00;;;;;;;12.30;6.70;;;;;;;10.28;56.55;99406.29;105143;1257;76687;-26
2024/03/21 10:31:28;;;;;;;14.40;7.90;;;;;;;10.09;56.41;99405.56;105350;1257;75839;-26
2024/03/21 10:33:57;;;;;;;13.20;7.70;;;;;;;10.15;56.27;99405.63;105206;1261;74785;-26
2024/03/21 10:36:25;;;;;;;16.10;7.70;;;;;;;10.41;56.62;99403.91;105267;1257;62522;-26
2024/03/21 10:38:53;;;;;;;40.00;17.50;;;;;;;11.20;54.48;99403.16;105275;1258;62859;-26
2024/03/21 10:41:22;;;;;;;41.50;20.60;;;;;;;12.19;52.13;99397.88;105232;1258;75529;-26
2024/03/21 10:43:57;;;;;;;29.30;10.50;;;;;;;11.96;51.77;99396.23;105262;1257;76799;-28
2024/03/21 10:46:27;;;;;;;23.60;11.50;;;;;;;13.33;49.55;99397.61;105266;1258;74452;-27
2024/03/21 10:48:58;;;;;;;14.00;7.70;;;;;;;13.04;48.65;99396.91;105501;1257;61920;-27
2024/03/21 10:51:26;;;;;;;14.70;7.30;;;;;;;13.51;48.59;99395.29;105380;1257;61202;-27
2024/03/21 10:54:01;;;;;;;14.60;5.10;;;;;;;14.15;47.28;99395.71;105365;1258;76283;-27
2024/03/21 10:56:39;;;;;;;9.20;5.50;;;;;;;15.21;45.22;99397.77;105361;1257;77101;-27
2024/03/21 10:59:06;;;;;;;13.80;7.60;;;;;;;14.36;45.98;99392.67;105219;1264;73277;-27
2024/03/21 11:01:38;;;;;;;12.00;5.60;;;;;;;14.87;45.11;99396.55;105368;1257;62615;-27
2024/03/21 11:04:10;;;;;;;13.60;6.10;;;;;;;14.76;44.83;99392.27;105395;1264;62822;-27
2024/03/21 11:06:42;;;;;;;12.50;5.60;;;;;;;15.35;43.85;99390.48;105247;1264;74943;-27
2024/03/21 11:09:12;;;;;;;32.40;12.40;;;;;;;14.78;44.86;99385.13;105221;1264;77421;-27
2024/03/21 11:11:40;;;;;;;29.30;14.00;;;;;;;15.03;44.68;99382.98;105356;1258;75176;-27
2024/03/21 11:14:09;;;;;;;15.60;6.30;;;;;;;15.38;44.74;99378.25;105197;1257;61338;-27
2024/03/21 11:16:40;;;;;;;11.30;6.20;;;;;;;15.33;44.08;99378.92;105513;1263;62487;-27
2024/03/21 11:19:08;;;;;;;12.40;5.40;;;;;;;14.16;46.18;99376.41;105437;1263;76430;-27
2024/03/21 11:21:40;;;;;;;14.20;6.70;;;;;;;14.64;45.11;99376.08;105348;1265;76765;-26
2024/03/21 11:24:12;;;;;;;13.50;4.60;;;;;;;13.97;46.03;99371.39;105326;1262;74100;-27
2024/03/21 11:26:41;;;;;;;14.20;5.50;;;;;;;14.04;45.80;99369.66;105293;1260;61531;-27
2024/03/21 11:29:12;;;;;;;14.20;5.70;;;;;;;13.10;47.64;99368.53;105232;1257;61482;-27
2024/03/21 11:31:46;;;;;;;14.60;7.30;;;;;;;13.18;47.89;99362.29;105130;1257;75737;-27
2024/03/21 11:34:14;;;;;;;13.60;6.20;;;;;;;12.06;50.03;99363.63;105089;1257;74741;-27
2024/03/21 11:36:41;;;;;;;13.40;5.70;;;;;;;11.70;50.96;99364.02;105257;1260;74399;-27
2024/03/21 11:39:13;;;;;;;10.60;4.70;;;;;;;12.09;50.57;99363.06;105494;1257;63143;-27
2024/03/21 11:41:41;;;;;;;7.60;4.50;;;;;;;12.40;49.29;99362.06;105417;1258;64124;-27
2024/03/21 11:44:15;;;;;;;8.80;5.10;;;;;;;12.35;49.71;99362.27;105490;1257;75935;-27
2024/03/21 11:46:43;;;;;;;10.00;4.20;;;;;;;13.63;47.03;99363.41;105239;1258;75851;-27
2024/03/21 11:49:12;;;;;;;20.40;8.20;;;;;;;13.99;45.17;99361.75;105478;1264;74770;-27
2024/03/21 11:51:40;;;;;;;17.80;6.10;;;;;;;14.14;45.84;99363.76;105585;1261;62558;-27
2024/03/21 11:54:09;;;;;;;15.40;5.50;;;;;;;14.40;45.76;99362.96;105533;1258;61512;-27
2024/03/21 11:56:41;;;;;;;47.40;21.70;;;;;;;14.11;45.88;99360.48;105182;1267;75569;-27
2024/03/21 11:59:08;;;;;;;17.70;8.70;;;;;;;13.28;47.05;99354.93;105564;1257;75791;-26
2024/03/21 12:01:36;;;;;;;16.70;6.40;;;;;;;14.11;45.27;99355.76;105438;1256;75459;-27
2024/03/21 12:04:05;;;;;;;7.60;5.20;;;;;;;14.50;44.80;99353.80;105436;1263;61456;-27
2024/03/21 12:06:33;;;;;;;9.60;5.20;;;;;;;14.29;44.71;99347.54;105308;1263;62527;-27
2024/03/21 12:09:01;;;;;;;14.90;5.30;;;;;;;13.93;45.53;99349.18;105601;1257;74859;-27
2024/03/21 12:11:29;;;;;;;8.70;4.90;;;;;;;13.18;46.88;99345.89;105508;1260;75797;-27
2024/03/21 12:13:57;;;;;;;8.80;4.60;;;;;;;13.50;46.64;99345.87;105322;1263;74812;-27
2024/03/21 12:16:24;;;;;;;10.30;5.40;;;;;;;14.06;45.46;99343.66;105129;1262;62302;-27
2024/03/21 12:18:52;;;;;;;11.50;5.20;;;;;;;14.18;44.81;99338.89;105370;1260;62554;-27
2024/03/21 12:21:23;;;;;;;8.10;4.20;;;;;;;14.06;45.02;99335.63;105462;1260;75193;-27
2024/03/21 12:23:50;;;;;;;9.60;5.40;;;;;;;13.90;45.31;99332.88;105415;1256;78290;-27
2024/03/21 12:26:18;;;;;;;12.60;4.40;;;;;;;13.21;45.97;99332.33;105522;1258;75137;-26
2024/03/21 12:28:47;;;;;;;12.90;4.40;;;;;;;13.96;45.44;99329.39;105486;1262;61277;-26
2024/03/21 12:31:15;;;;;;;16.90;6.30;;;;;;;13.78;45.19;99326.39;105233;1266;62149;-26
2024/03/21 12:33:44;;;;;;;17.90;8.10;;;;;;;13.11;46.22;99323.51;105581;1263;75309;-26
2024/03/21 12:36:12;;;;;;;11.70;5.60;;;;;;;13.32;45.74;99322.52;105562;1257;76778;-26
2024/03/21 12:38:41;;;;;;;12.20;4.70;;;;;;;14.37;44.45;99324.75;105517;1260;75594;-26
2024/03/21 12:41:10;;;;;;;22.10;10.70;;;;;;;14.69;42.92;99322.70;105261;1263;61156;-26
2024/03/21 12:43:38;;;;;;;14.00;5.40;;;;;;;14.23;42.78;99321.85;105171;1256;61327;-26
2024/03/21 12:46:08;;;;;;;19.40;7.50;;;;;;;14.29;42.95;99322.05;105320;1262;75202;-26
2024/03/21 12:48:36;;;;;;;15.10;4.60;;;;;;;13.90;42.69;99323.09;105188;1256;77356;-26
2024/03/21 12:51:04;;;;;;;12.50;5.70;;;;;;;14.85;42.12;99322.97;105425;1258;75727;-26
2024/03/21 12:53:32;;;;;;;9.10;4.50;;;;;;;15.24;41.81;99321.36;105240;1264;62541;-26
2024/03/21 12:56:00;;;;;;;8.40;4.40;;;;;;;15.18;40.46;99317.05;105105;1258;62005;-26
2024/03/21 12:58:28;;;;;;;12.20;4.60;;;;;;;14.94;41.02;99314.94;105491;1256;77148;-27
2024/03/21 13:00:55;;;;;;;11.60;4.20;;;;;;;15.15;41.02;99311.88;105315;1257;76498;-26
2024/03/21 13:03:24;;;;;;;10.90;4.80;;;;;;;15.46;40.85;99311.52;105299;1260;75417;-26
2024/03/21 13:05:51;;;;;;;17.10;6.00;;;;;;;15.78;41.16;99308.96;105360;1263;62530;-26
2024/03/21 13:08:19;;;;;;;11.00;4.70;;;;;;;15.56;39.91;99310.52;105509;1256;62543;-27
2024/03/21 13:10:47;;;;;;;10.10;5.10;;;;;;;14.45;43.50;99306.91;105200;1264;76783;-25
2024/03/21 13:13:15;;;;;;;29.40;13.30;;;;;;;13.15;44.98;99302.38;105495;1257;76394;-26
2024/03/21 13:15:42;;;;;;;18.50;7.50;;;;;;;13.14;45.35;99303.29;105073;1256;74026;-25
2024/03/21 13:18:10;;;;;;;15.90;6.10;;;;;;;13.12;45.10;99298.47;105448;1257;61529;-26
2024/03/21 13:20:38;;;;;;;19.70;7.20;;;;;;;13.40;44.87;99296.17;105448;1256;61761;-26
2024/03/21 13:23:06;;;;;;;8.00;4.10;;;;;;;13.88;44.26;99294.86;105539;1256;77258;-26
2024/03/21 13:25:33;;;;;;;8.80;4.20;;;;;;;13.36;45.32;99293.19;105335;1256;76539;-26
2024/03/21 13:28:01;;;;;;;9.50;4.30;;;;;;;12.78;47.03;99291.15;105246;1257;74642;-26